New Nada — 3ELP9 — position and weather

sailwx.info

Track history (hours):
 
Tides and Currents Weather Stations Pressure Air Temp Water Temp Dewpoint Dewpoint Depression Visibility Wind Speed Wind Dir Waves Ship Positions

New Nada

Last reported at 2016-Apr-27 09:12 UTC. Time now 2016-May-24 08:05 UTC.
Position N 37°07' W 124°07'.
Warning: this ship's position is 26 days out of date.

Length 180 m; beam 32.2 m.

Type: Cargo ship. MMSI: 356005000.

Date/timePositionNaut miles runAvg speedWind from/ knotsBaromVisibWave heightAir tempDewpointWater temp
2016-Apr-27 09:12N 37°07' W 124°07'1416.5
2016-Apr-27 08:22N 37°13' W 123°52'1416.7
2016-Apr-27 07:31N 37°20' W 123°36'1816.9
2016-Apr-27 06:29N 37°28' W 123°17'1616.4
2016-Apr-27 05:32N 37°36' W 122°60'1515.2
2016-Apr-27 04:33N 37°43' W 122°43'10 9.7
2016-Apr-27 03:33N 37°48' W 122°32'1111.5
2016-Apr-27 02:33N 37°58' W 122°26'10 0.6
2016-Apr-26 08:07N 38°04' W 122°15'713.1
2016-Apr-26 07:33N 38°01' W 122°24'1110.7
2016-Apr-26 06:33N 37°50' W 122°27'1211.9
2016-Apr-26 05:34N 37°44' W 122°40'5 4.5
2016-Apr-26 04:34N 37°40' W 122°40'3 2.9
2016-Apr-26 03:34N 37°37' W 122°40'4 3.9
2016-Apr-26 02:34N 37°33' W 122°40'5 4.6
2016-Apr-26 01:34N 37°29' W 122°40'4 3.8
2016-Apr-26 00:34N 37°25' W 122°40'4 4.2
2016-Apr-25 23:33N 37°21' W 122°40'5 5.3
2016-Apr-25 22:33N 37°15' W 122°40'5 5.3
2016-Apr-25 21:33N 37°10' W 122°39'4 4.5
2016-Apr-25 20:34N 37°06' W 122°37'4 4.4
2016-Apr-25 19:33N 37°03' W 122°33'7 7.5
2016-Apr-25 18:33N 36°56' W 122°28'7 7.4
2016-Apr-25 17:33N 36°49' W 122°26'7 7.1
2016-Apr-25 16:33N 36°42' W 122°26'8 7.7
2016-Apr-25 15:33N 36°35' W 122°30'7 6.6
2016-Apr-25 14:33N 36°29' W 122°33'7 3.5
2016-Apr-25 12:25N 36°21' W 122°34'2 2.3
2016-Apr-25 11:33N 36°20' W 122°33'3 3.2
2016-Apr-25 10:33N 36°20' W 122°29'1010.3
2016-Apr-25 09:33N 36°29' W 122°34'1212.1
2016-Apr-25 08:32N 36°41' W 122°39'1010.3
2016-Apr-25 07:33N 36°51' W 122°42'10 9.7
2016-Apr-25 06:33N 37°00' W 122°43'9 9.3
2016-Apr-25 05:33N 37°09' W 122°45'4 3.8
2016-Apr-25 04:33N 37°07' W 122°42'5 4.5
2016-Apr-25 03:32N 37°03' W 122°39'1010.6
2016-Apr-25 02:33N 36°53' W 122°39'1110.9
2016-Apr-25 01:33N 36°42' W 122°38'1111.3
2016-Apr-25 00:33N 36°31' W 122°35'1211.5
2016-Apr-24 23:32N 36°20' W 122°29'1212.2
2016-Apr-24 22:34N 36°10' W 122°21'1312.6
2016-Apr-24 21:33N 35°60' W 122°12'1312.5
2016-Apr-24 20:33N 35°49' W 122°04'1212.4
2016-Apr-24 19:33N 35°39' W 121°55'1212.5
2016-Apr-24 18:33N 35°29' W 121°46'1512.8
2016-Apr-24 17:23N 35°16' W 121°36'14212.6
2016-Apr-24 06:07N 34°01' W 119°09'3810.7
2016-Apr-24 02:33N 33°42' W 118°29'1210.3
2016-Apr-24 01:25N 33°38' W 118°16'6 7.4
2016-Apr-24 00:33N 33°44' W 118°12'2 0.1
2016-Apr-23 11:31N 33°45' W 118°13'8 6.7
2016-Apr-23 10:24N 33°38' W 118°13'228 9.8
2016-Apr-22 11:08N 34°25' W 122°42'1417.0
2016-Apr-22 10:20N 34°25' W 122°59'1417.2
2016-Apr-22 09:31N 34°25' W 123°16'  
Track history (hours):
 
Tides and Currents Weather Stations Pressure Air Temp Water Temp Dewpoint Dewpoint Depression Visibility Wind Speed Wind Dir Waves Ship Positions

New Nada

Last reported at 2016-Apr-27 09:12 UTC. Time now 2016-May-24 08:05 UTC.
Position N 37°07' W 124°07'.
Warning: this ship's position is 26 days out of date.

Length 180 m; beam 32.2 m.

Type: Cargo ship. MMSI: 356005000.

Date/timePositionNaut miles runAvg speedWind from/ knotsBaromVisibWave heightAir tempDewpointWater temp
2016-Apr-27 09:12N 37°07' W 124°07'1416.5
2016-Apr-27 08:22N 37°13' W 123°52'1416.7
2016-Apr-27 07:31N 37°20' W 123°36'1816.9
2016-Apr-27 06:29N 37°28' W 123°17'1616.4
2016-Apr-27 05:32N 37°36' W 122°60'1515.2
2016-Apr-27 04:33N 37°43' W 122°43'10 9.7
2016-Apr-27 03:33N 37°48' W 122°32'1111.5
2016-Apr-27 02:33N 37°58' W 122°26'10 0.6
2016-Apr-26 08:07N 38°04' W 122°15'713.1
2016-Apr-26 07:33N 38°01' W 122°24'1110.7
2016-Apr-26 06:33N 37°50' W 122°27'1211.9
2016-Apr-26 05:34N 37°44' W 122°40'5 4.5
2016-Apr-26 04:34N 37°40' W 122°40'3 2.9
2016-Apr-26 03:34N 37°37' W 122°40'4 3.9
2016-Apr-26 02:34N 37°33' W 122°40'5 4.6
2016-Apr-26 01:34N 37°29' W 122°40'4 3.8
2016-Apr-26 00:34N 37°25' W 122°40'4 4.2
2016-Apr-25 23:33N 37°21' W 122°40'5 5.3
2016-Apr-25 22:33N 37°15' W 122°40'5 5.3
2016-Apr-25 21:33N 37°10' W 122°39'4 4.5
2016-Apr-25 20:34N 37°06' W 122°37'4 4.4
2016-Apr-25 19:33N 37°03' W 122°33'7 7.5
2016-Apr-25 18:33N 36°56' W 122°28'7 7.4
2016-Apr-25 17:33N 36°49' W 122°26'7 7.1
2016-Apr-25 16:33N 36°42' W 122°26'8 7.7
2016-Apr-25 15:33N 36°35' W 122°30'7 6.6
2016-Apr-25 14:33N 36°29' W 122°33'7 3.5
2016-Apr-25 12:25N 36°21' W 122°34'2 2.3
2016-Apr-25 11:33N 36°20' W 122°33'3 3.2
2016-Apr-25 10:33N 36°20' W 122°29'1010.3
2016-Apr-25 09:33N 36°29' W 122°34'1212.1
2016-Apr-25 08:32N 36°41' W 122°39'1010.3
2016-Apr-25 07:33N 36°51' W 122°42'10 9.7
2016-Apr-25 06:33N 37°00' W 122°43'9 9.3
2016-Apr-25 05:33N 37°09' W 122°45'4 3.8
2016-Apr-25 04:33N 37°07' W 122°42'5 4.5
2016-Apr-25 03:32N 37°03' W 122°39'1010.6
2016-Apr-25 02:33N 36°53' W 122°39'1110.9
2016-Apr-25 01:33N 36°42' W 122°38'1111.3
2016-Apr-25 00:33N 36°31' W 122°35'1211.5
2016-Apr-24 23:32N 36°20' W 122°29'1212.2
2016-Apr-24 22:34N 36°10' W 122°21'1312.6
2016-Apr-24 21:33N 35°60' W 122°12'1312.5
2016-Apr-24 20:33N 35°49' W 122°04'1212.4
2016-Apr-24 19:33N 35°39' W 121°55'1212.5
2016-Apr-24 18:33N 35°29' W 121°46'1512.8
2016-Apr-24 17:23N 35°16' W 121°36'14212.6
2016-Apr-24 06:07N 34°01' W 119°09'3810.7
2016-Apr-24 02:33N 33°42' W 118°29'1210.3
2016-Apr-24 01:25N 33°38' W 118°16'6 7.4
2016-Apr-24 00:33N 33°44' W 118°12'2 0.1
2016-Apr-23 11:31N 33°45' W 118°13'8 6.7
2016-Apr-23 10:24N 33°38' W 118°13'228 9.8
2016-Apr-22 11:08N 34°25' W 122°42'1417.0
2016-Apr-22 10:20N 34°25' W 122°59'1417.2
2016-Apr-22 09:31N 34°25' W 123°16'  

Dump ship's entire track history